Terminal Aerodrome Forecast
Issued by NWS Hastings, NE

Home | Current Version | Previous Version | Text Only | Print | Product List | Glossary On
Versions: 1 2 3 4 5 6 7 8 9 10 11 12 13 14
000
FTUS43 KGID 191120
TAFGRI
TAF
KGRI 191120Z 1912/2012 VRB03KT P6SM FEW250
     FM191700 16007KT P6SM SKC
     FM192100 17011KT P6SM SKC
     FM200300 17010KT P6SM FEW250 WS010/20040KT=

USA.gov is the U.S. government's official web portal to all federal, state and local government web resources and services.